sensor_id;sensor_type;location;lat;lon;timestamp;P1;durP1;ratioP1;P2;durP2;ratioP2
41323;SDS011;27073;51.128;4.220;2023-01-20T00:02:20;44.03;;;25.15;;
41323;SDS011;27073;51.128;4.220;2023-01-20T00:04:49;39.55;;;24.13;;
41323;SDS011;27073;51.128;4.220;2023-01-20T00:07:15;44.03;;;27.27;;
41323;SDS011;27073;51.128;4.220;2023-01-20T00:09:40;46.35;;;26.95;;
41323;SDS011;27073;51.128;4.220;2023-01-20T00:12:06;48.22;;;27.67;;
41323;SDS011;27073;51.128;4.220;2023-01-20T00:14:32;44.88;;;26.98;;
41323;SDS011;27073;51.128;4.220;2023-01-20T00:16:57;48.97;;;27.38;;
41323;SDS011;27073;51.128;4.220;2023-01-20T00:19:24;51.60;;;28.95;;
41323;SDS011;27073;51.128;4.220;2023-01-20T00:21:51;45.97;;;27.33;;
41323;SDS011;27073;51.128;4.220;2023-01-20T00:24:17;49.67;;;30.23;;
41323;SDS011;27073;51.128;4.220;2023-01-20T00:26:43;52.20;;;29.98;;
41323;SDS011;27073;51.128;4.220;2023-01-20T00:29:09;50.03;;;28.90;;
41323;SDS011;27073;51.128;4.220;2023-01-20T00:31:34;50.47;;;28.42;;
41323;SDS011;27073;51.128;4.220;2023-01-20T00:34:00;47.58;;;28.58;;
41323;SDS011;27073;51.128;4.220;2023-01-20T00:36:28;45.72;;;27.48;;
41323;SDS011;27073;51.128;4.220;2023-01-20T00:38:55;48.97;;;26.35;;
41323;SDS011;27073;51.128;4.220;2023-01-20T00:41:21;46.80;;;29.02;;
41323;SDS011;27073;51.128;4.220;2023-01-20T00:43:47;44.20;;;22.73;;
41323;SDS011;27073;51.128;4.220;2023-01-20T00:46:13;53.33;;;27.48;;
41323;SDS011;27073;51.128;4.220;2023-01-20T00:48:39;48.92;;;28.70;;
41323;SDS011;27073;51.128;4.220;2023-01-20T00:51:06;52.80;;;28.67;;
41323;SDS011;27073;51.128;4.220;2023-01-20T00:53:33;52.50;;;29.27;;
41323;SDS011;27073;51.128;4.220;2023-01-20T00:55:59;44.55;;;25.80;;
41323;SDS011;27073;51.128;4.220;2023-01-20T00:58:25;46.22;;;26.55;;
41323;SDS011;27073;51.128;4.220;2023-01-20T01:00:51;49.85;;;28.98;;
41323;SDS011;27073;51.128;4.220;2023-01-20T01:03:17;45.97;;;27.95;;
41323;SDS011;27073;51.128;4.220;2023-01-20T01:05:43;53.58;;;28.35;;
41323;SDS011;27073;51.128;4.220;2023-01-20T01:08:09;52.00;;;29.45;;
41323;SDS011;27073;51.128;4.220;2023-01-20T01:10:36;54.88;;;30.35;;
41323;SDS011;27073;51.128;4.220;2023-01-20T01:13:02;46.25;;;26.73;;
41323;SDS011;27073;51.128;4.220;2023-01-20T01:15:28;54.83;;;28.58;;
41323;SDS011;27073;51.128;4.220;2023-01-20T01:17:55;59.08;;;28.92;;
41323;SDS011;27073;51.128;4.220;2023-01-20T01:20:21;58.28;;;30.85;;
41323;SDS011;27073;51.128;4.220;2023-01-20T01:22:47;53.67;;;27.45;;
41323;SDS011;27073;51.128;4.220;2023-01-20T01:25:13;52.15;;;29.05;;
41323;SDS011;27073;51.128;4.220;2023-01-20T01:27:39;51.38;;;27.77;;
41323;SDS011;27073;51.128;4.220;2023-01-20T01:30:05;56.58;;;32.25;;
41323;SDS011;27073;51.128;4.220;2023-01-20T01:32:31;59.55;;;30.90;;
41323;SDS011;27073;51.128;4.220;2023-01-20T01:34:57;56.88;;;31.40;;
41323;SDS011;27073;51.128;4.220;2023-01-20T01:37:22;52.95;;;29.30;;
41323;SDS011;27073;51.128;4.220;2023-01-20T01:39:48;55.13;;;28.25;;
41323;SDS011;27073;51.128;4.220;2023-01-20T01:42:15;50.38;;;29.55;;
41323;SDS011;27073;51.128;4.220;2023-01-20T01:50:03;54.75;;;30.70;;
41323;SDS011;27073;51.128;4.220;2023-01-20T01:52:30;51.72;;;30.85;;
41323;SDS011;27073;51.128;4.220;2023-01-20T01:54:57;50.00;;;27.90;;
41323;SDS011;27073;51.128;4.220;2023-01-20T01:57:23;53.92;;;30.08;;
41323;SDS011;27073;51.128;4.220;2023-01-20T01:59:49;52.70;;;30.25;;
41323;SDS011;27073;51.128;4.220;2023-01-20T02:02:15;44.65;;;26.20;;
41323;SDS011;27073;51.128;4.220;2023-01-20T02:04:42;57.45;;;31.35;;
41323;SDS011;27073;51.128;4.220;2023-01-20T02:07:10;56.20;;;32.28;;
41323;SDS011;27073;51.128;4.220;2023-01-20T02:09:40;53.80;;;29.83;;
41323;SDS011;27073;51.128;4.220;2023-01-20T02:12:07;48.35;;;28.70;;
41323;SDS011;27073;51.128;4.220;2023-01-20T02:14:38;55.03;;;29.90;;
41323;SDS011;27073;51.128;4.220;2023-01-20T02:25:28;52.25;;;28.95;;
41323;SDS011;27073;51.128;4.220;2023-01-20T02:34:01;51.72;;;30.23;;
41323;SDS011;27073;51.128;4.220;2023-01-20T02:36:43;47.05;;;25.67;;
41323;SDS011;27073;51.128;4.220;2023-01-20T02:42:11;51.63;;;28.52;;
41323;SDS011;27073;51.128;4.220;2023-01-20T02:52:34;56.70;;;29.98;;
41323;SDS011;27073;51.128;4.220;2023-01-20T02:55:05;51.22;;;30.35;;
41323;SDS011;27073;51.128;4.220;2023-01-20T02:57:45;52.67;;;29.35;;
41323;SDS011;27073;51.128;4.220;2023-01-20T03:00:16;49.63;;;29.02;;
41323;SDS011;27073;51.128;4.220;2023-01-20T03:02:50;52.17;;;29.20;;
41323;SDS011;27073;51.128;4.220;2023-01-20T03:05:19;53.58;;;30.92;;
41323;SDS011;27073;51.128;4.220;2023-01-20T03:07:57;44.73;;;27.07;;
41323;SDS011;27073;51.128;4.220;2023-01-20T03:10:27;51.53;;;28.05;;
41323;SDS011;27073;51.128;4.220;2023-01-20T03:13:08;50.70;;;27.85;;
41323;SDS011;27073;51.128;4.220;2023-01-20T03:18:24;52.17;;;29.73;;
41323;SDS011;27073;51.128;4.220;2023-01-20T03:20:52;52.60;;;27.52;;
41323;SDS011;27073;51.128;4.220;2023-01-20T03:23:18;54.17;;;30.08;;
41323;SDS011;27073;51.128;4.220;2023-01-20T03:25:44;55.03;;;29.65;;
41323;SDS011;27073;51.128;4.220;2023-01-20T03:28:13;55.10;;;31.55;;
41323;SDS011;27073;51.128;4.220;2023-01-20T03:30:39;51.63;;;28.80;;
41323;SDS011;27073;51.128;4.220;2023-01-20T03:33:04;47.83;;;27.73;;
41323;SDS011;27073;51.128;4.220;2023-01-20T03:35:32;46.70;;;26.48;;
41323;SDS011;27073;51.128;4.220;2023-01-20T03:37:58;50.75;;;29.42;;
41323;SDS011;27073;51.128;4.220;2023-01-20T03:40:24;49.08;;;27.52;;
41323;SDS011;27073;51.128;4.220;2023-01-20T03:43:05;45.30;;;26.95;;
41323;SDS011;27073;51.128;4.220;2023-01-20T03:46:01;45.70;;;26.80;;
41323;SDS011;27073;51.128;4.220;2023-01-20T03:48:45;50.90;;;27.65;;
41323;SDS011;27073;51.128;4.220;2023-01-20T03:54:01;45.35;;;25.85;;
41323;SDS011;27073;51.128;4.220;2023-01-20T03:59:20;43.45;;;24.58;;
41323;SDS011;27073;51.128;4.220;2023-01-20T04:01:47;42.90;;;24.70;;
41323;SDS011;27073;51.128;4.220;2023-01-20T04:04:15;44.08;;;25.88;;
41323;SDS011;27073;51.128;4.220;2023-01-20T04:06:43;43.38;;;25.33;;
41323;SDS011;27073;51.128;4.220;2023-01-20T04:09:12;43.08;;;24.20;;
41323;SDS011;27073;51.128;4.220;2023-01-20T04:11:47;44.83;;;26.90;;
41323;SDS011;27073;51.128;4.220;2023-01-20T04:14:13;42.70;;;23.48;;
41323;SDS011;27073;51.128;4.220;2023-01-20T04:16:39;42.67;;;23.55;;
41323;SDS011;27073;51.128;4.220;2023-01-20T04:19:05;40.47;;;25.60;;
41323;SDS011;27073;51.128;4.220;2023-01-20T04:21:33;40.38;;;24.17;;
41323;SDS011;27073;51.128;4.220;2023-01-20T04:27:05;41.00;;;22.58;;
41323;SDS011;27073;51.128;4.220;2023-01-20T04:29:31;39.22;;;22.77;;
41323;SDS011;27073;51.128;4.220;2023-01-20T04:32:00;36.47;;;21.85;;
41323;SDS011;27073;51.128;4.220;2023-01-20T04:34:26;38.25;;;22.33;;
41323;SDS011;27073;51.128;4.220;2023-01-20T04:36:52;37.58;;;22.48;;
41323;SDS011;27073;51.128;4.220;2023-01-20T04:39:18;40.25;;;23.90;;
41323;SDS011;27073;51.128;4.220;2023-01-20T04:41:44;34.35;;;22.40;;
41323;SDS011;27073;51.128;4.220;2023-01-20T04:44:11;36.70;;;21.73;;
41323;SDS011;27073;51.128;4.220;2023-01-20T04:46:36;34.15;;;21.50;;
41323;SDS011;27073;51.128;4.220;2023-01-20T04:49:02;34.42;;;21.73;;
41323;SDS011;27073;51.128;4.220;2023-01-20T04:51:28;33.03;;;22.05;;
41323;SDS011;27073;51.128;4.220;2023-01-20T04:53:58;40.10;;;23.23;;
41323;SDS011;27073;51.128;4.220;2023-01-20T04:56:24;38.80;;;22.65;;
41323;SDS011;27073;51.128;4.220;2023-01-20T04:58:50;33.35;;;21.45;;
41323;SDS011;27073;51.128;4.220;2023-01-20T05:01:16;34.33;;;21.50;;
41323;SDS011;27073;51.128;4.220;2023-01-20T05:03:42;34.55;;;19.58;;
41323;SDS011;27073;51.128;4.220;2023-01-20T05:06:09;35.15;;;21.38;;
41323;SDS011;27073;51.128;4.220;2023-01-20T05:08:35;36.63;;;22.50;;
41323;SDS011;27073;51.128;4.220;2023-01-20T05:11:00;34.28;;;21.30;;
41323;SDS011;27073;51.128;4.220;2023-01-20T05:13:27;32.10;;;20.65;;
41323;SDS011;27073;51.128;4.220;2023-01-20T05:15:53;34.35;;;21.90;;
41323;SDS011;27073;51.128;4.220;2023-01-20T05:18:19;33.33;;;20.88;;
41323;SDS011;27073;51.128;4.220;2023-01-20T05:20:45;37.75;;;23.10;;
41323;SDS011;27073;51.128;4.220;2023-01-20T05:23:12;37.97;;;22.25;;
41323;SDS011;27073;51.128;4.220;2023-01-20T05:25:38;37.67;;;23.08;;
41323;SDS011;27073;51.128;4.220;2023-01-20T05:28:04;37.67;;;22.60;;
41323;SDS011;27073;51.128;4.220;2023-01-20T05:30:30;38.17;;;23.10;;
41323;SDS011;27073;51.128;4.220;2023-01-20T05:32:55;35.90;;;22.30;;
41323;SDS011;27073;51.128;4.220;2023-01-20T05:35:21;37.65;;;23.50;;
41323;SDS011;27073;51.128;4.220;2023-01-20T05:37:47;36.03;;;22.25;;
41323;SDS011;27073;51.128;4.220;2023-01-20T05:40:16;40.75;;;24.30;;
41323;SDS011;27073;51.128;4.220;2023-01-20T05:42:42;36.47;;;22.50;;
41323;SDS011;27073;51.128;4.220;2023-01-20T05:45:08;36.70;;;22.65;;
41323;SDS011;27073;51.128;4.220;2023-01-20T05:47:34;37.95;;;25.73;;
41323;SDS011;27073;51.128;4.220;2023-01-20T05:49:59;40.38;;;23.55;;
41323;SDS011;27073;51.128;4.220;2023-01-20T05:52:25;40.85;;;22.98;;
41323;SDS011;27073;51.128;4.220;2023-01-20T05:54:51;35.22;;;23.17;;
41323;SDS011;27073;51.128;4.220;2023-01-20T05:57:16;37.03;;;21.88;;
41323;SDS011;27073;51.128;4.220;2023-01-20T05:59:43;37.65;;;24.13;;
41323;SDS011;27073;51.128;4.220;2023-01-20T06:02:11;35.80;;;23.13;;
41323;SDS011;27073;51.128;4.220;2023-01-20T06:04:39;36.97;;;23.15;;
41323;SDS011;27073;51.128;4.220;2023-01-20T06:07:05;41.03;;;25.63;;
41323;SDS011;27073;51.128;4.220;2023-01-20T06:09:31;38.92;;;23.52;;
41323;SDS011;27073;51.128;4.220;2023-01-20T06:11:57;41.20;;;24.85;;
41323;SDS011;27073;51.128;4.220;2023-01-20T06:14:22;35.22;;;21.60;;
41323;SDS011;27073;51.128;4.220;2023-01-20T06:16:48;37.80;;;23.05;;
41323;SDS011;27073;51.128;4.220;2023-01-20T06:19:14;41.00;;;23.88;;
41323;SDS011;27073;51.128;4.220;2023-01-20T06:21:40;41.78;;;24.02;;
41323;SDS011;27073;51.128;4.220;2023-01-20T06:24:06;37.00;;;22.67;;
41323;SDS011;27073;51.128;4.220;2023-01-20T06:26:31;40.78;;;21.60;;
41323;SDS011;27073;51.128;4.220;2023-01-20T06:28:58;38.53;;;22.73;;
41323;SDS011;27073;51.128;4.220;2023-01-20T06:31:25;43.45;;;25.33;;
41323;SDS011;27073;51.128;4.220;2023-01-20T06:33:53;41.60;;;23.25;;
41323;SDS011;27073;51.128;4.220;2023-01-20T06:36:20;36.63;;;21.40;;
41323;SDS011;27073;51.128;4.220;2023-01-20T06:38:45;40.00;;;24.73;;
41323;SDS011;27073;51.128;4.220;2023-01-20T06:41:14;40.20;;;22.92;;
41323;SDS011;27073;51.128;4.220;2023-01-20T06:43:42;37.13;;;23.55;;
41323;SDS011;27073;51.128;4.220;2023-01-20T06:46:12;38.90;;;23.77;;
41323;SDS011;27073;51.128;4.220;2023-01-20T06:48:39;38.92;;;22.33;;
41323;SDS011;27073;51.128;4.220;2023-01-20T06:51:06;34.72;;;22.25;;
41323;SDS011;27073;51.128;4.220;2023-01-20T06:53:35;36.95;;;23.60;;
41323;SDS011;27073;51.128;4.220;2023-01-20T06:56:01;37.88;;;22.33;;
41323;SDS011;27073;51.128;4.220;2023-01-20T06:58:28;42.85;;;24.75;;
41323;SDS011;27073;51.128;4.220;2023-01-20T07:00:56;38.05;;;23.98;;
41323;SDS011;27073;51.128;4.220;2023-01-20T07:03:22;38.60;;;23.05;;
41323;SDS011;27073;51.128;4.220;2023-01-20T07:05:53;37.47;;;22.65;;
41323;SDS011;27073;51.128;4.220;2023-01-20T07:08:23;36.00;;;22.95;;
41323;SDS011;27073;51.128;4.220;2023-01-20T07:10:49;42.42;;;22.40;;
41323;SDS011;27073;51.128;4.220;2023-01-20T07:13:15;38.97;;;22.85;;
41323;SDS011;27073;51.128;4.220;2023-01-20T07:15:40;39.83;;;23.42;;
41323;SDS011;27073;51.128;4.220;2023-01-20T07:18:06;41.55;;;22.88;;
41323;SDS011;27073;51.128;4.220;2023-01-20T07:20:32;37.17;;;23.23;;
41323;SDS011;27073;51.128;4.220;2023-01-20T07:22:58;38.50;;;24.63;;
41323;SDS011;27073;51.128;4.220;2023-01-20T07:25:25;41.25;;;23.55;;
41323;SDS011;27073;51.128;4.220;2023-01-20T07:27:51;42.38;;;23.02;;
41323;SDS011;27073;51.128;4.220;2023-01-20T07:30:17;39.05;;;22.75;;
41323;SDS011;27073;51.128;4.220;2023-01-20T07:32:43;37.40;;;22.70;;
41323;SDS011;27073;51.128;4.220;2023-01-20T07:35:09;33.65;;;21.13;;
41323;SDS011;27073;51.128;4.220;2023-01-20T07:37:35;39.58;;;21.80;;
41323;SDS011;27073;51.128;4.220;2023-01-20T07:40:00;33.67;;;21.85;;
41323;SDS011;27073;51.128;4.220;2023-01-20T07:42:26;32.85;;;21.67;;
41323;SDS011;27073;51.128;4.220;2023-01-20T07:44:52;40.10;;;23.70;;
41323;SDS011;27073;51.128;4.220;2023-01-20T07:47:18;40.70;;;23.27;;
41323;SDS011;27073;51.128;4.220;2023-01-20T07:49:44;36.70;;;21.20;;
41323;SDS011;27073;51.128;4.220;2023-01-20T07:52:10;37.17;;;21.38;;
41323;SDS011;27073;51.128;4.220;2023-01-20T07:54:35;35.63;;;21.33;;
41323;SDS011;27073;51.128;4.220;2023-01-20T07:57:01;34.47;;;21.85;;
41323;SDS011;27073;51.128;4.220;2023-01-20T07:59:27;33.30;;;22.25;;
41323;SDS011;27073;51.128;4.220;2023-01-20T08:01:54;37.15;;;21.55;;
41323;SDS011;27073;51.128;4.220;2023-01-20T08:04:20;34.25;;;19.73;;
41323;SDS011;27073;51.128;4.220;2023-01-20T08:06:45;36.50;;;20.88;;
41323;SDS011;27073;51.128;4.220;2023-01-20T08:09:12;41.47;;;23.55;;
41323;SDS011;27073;51.128;4.220;2023-01-20T08:11:39;31.45;;;19.98;;
41323;SDS011;27073;51.128;4.220;2023-01-20T08:14:05;33.83;;;20.85;;
41323;SDS011;27073;51.128;4.220;2023-01-20T08:16:31;36.13;;;21.83;;
41323;SDS011;27073;51.128;4.220;2023-01-20T08:18:57;34.45;;;20.92;;
41323;SDS011;27073;51.128;4.220;2023-01-20T08:21:24;33.63;;;21.88;;
41323;SDS011;27073;51.128;4.220;2023-01-20T08:23:59;34.40;;;21.40;;
41323;SDS011;27073;51.128;4.220;2023-01-20T08:26:26;32.75;;;19.83;;
41323;SDS011;27073;51.128;4.220;2023-01-20T08:28:54;32.00;;;21.10;;
41323;SDS011;27073;51.128;4.220;2023-01-20T08:31:25;35.58;;;21.25;;
41323;SDS011;27073;51.128;4.220;2023-01-20T08:33:52;36.60;;;21.17;;
41323;SDS011;27073;51.128;4.220;2023-01-20T08:36:26;37.28;;;18.83;;
41323;SDS011;27073;51.128;4.220;2023-01-20T08:38:55;27.70;;;18.27;;
41323;SDS011;27073;51.128;4.220;2023-01-20T08:41:23;30.20;;;17.65;;
41323;SDS011;27073;51.128;4.220;2023-01-20T08:43:51;25.80;;;16.58;;
41323;SDS011;27073;51.128;4.220;2023-01-20T08:46:18;28.73;;;17.70;;
41323;SDS011;27073;51.128;4.220;2023-01-20T08:48:44;28.67;;;17.92;;
41323;SDS011;27073;51.128;4.220;2023-01-20T08:51:13;24.27;;;15.05;;
41323;SDS011;27073;51.128;4.220;2023-01-20T08:53:42;25.00;;;16.67;;
41323;SDS011;27073;51.128;4.220;2023-01-20T08:56:08;23.65;;;15.90;;
41323;SDS011;27073;51.128;4.220;2023-01-20T08:58:35;24.42;;;15.23;;
41323;SDS011;27073;51.128;4.220;2023-01-20T09:01:06;24.55;;;15.68;;
41323;SDS011;27073;51.128;4.220;2023-01-20T09:03:33;27.25;;;14.25;;
41323;SDS011;27073;51.128;4.220;2023-01-20T09:06:02;31.02;;;16.23;;
41323;SDS011;27073;51.128;4.220;2023-01-20T09:08:29;22.33;;;13.63;;
41323;SDS011;27073;51.128;4.220;2023-01-20T09:11:16;21.00;;;12.98;;
41323;SDS011;27073;51.128;4.220;2023-01-20T09:13:42;24.02;;;13.70;;
41323;SDS011;27073;51.128;4.220;2023-01-20T09:16:10;29.33;;;14.75;;
41323;SDS011;27073;51.128;4.220;2023-01-20T09:18:37;28.17;;;13.35;;
41323;SDS011;27073;51.128;4.220;2023-01-20T09:21:03;21.65;;;13.38;;
41323;SDS011;27073;51.128;4.220;2023-01-20T09:23:32;19.10;;;11.43;;
41323;SDS011;27073;51.128;4.220;2023-01-20T09:25:59;18.77;;;10.85;;
41323;SDS011;27073;51.128;4.220;2023-01-20T09:28:25;19.23;;;11.75;;
41323;SDS011;27073;51.128;4.220;2023-01-20T09:31:00;23.52;;;10.27;;
41323;SDS011;27073;51.128;4.220;2023-01-20T09:33:31;17.83;;;10.00;;
41323;SDS011;27073;51.128;4.220;2023-01-20T09:36:00;24.17;;;11.48;;
41323;SDS011;27073;51.128;4.220;2023-01-20T09:38:26;21.05;;;11.68;;
41323;SDS011;27073;51.128;4.220;2023-01-20T09:41:16;22.05;;;10.07;;
41323;SDS011;27073;51.128;4.220;2023-01-20T09:49:03;21.05;;;10.43;;
41323;SDS011;27073;51.128;4.220;2023-01-20T09:55:07;23.15;;;10.27;;
41323;SDS011;27073;51.128;4.220;2023-01-20T09:57:38;24.13;;;11.82;;
41323;SDS011;27073;51.128;4.220;2023-01-20T10:00:14;17.42;;;10.35;;
41323;SDS011;27073;51.128;4.220;2023-01-20T10:02:47;21.00;;;10.18;;
41323;SDS011;27073;51.128;4.220;2023-01-20T10:05:21;19.60;;;10.07;;
41323;SDS011;27073;51.128;4.220;2023-01-20T10:13:43;19.92;;;10.15;;
41323;SDS011;27073;51.128;4.220;2023-01-20T10:18:45;14.50;;;8.70;;
41323;SDS011;27073;51.128;4.220;2023-01-20T10:26:16;16.83;;;8.93;;
41323;SDS011;27073;51.128;4.220;2023-01-20T10:28:56;15.73;;;8.75;;
41323;SDS011;27073;51.128;4.220;2023-01-20T10:31:26;16.27;;;8.93;;
41323;SDS011;27073;51.128;4.220;2023-01-20T10:34:04;15.63;;;8.90;;
41323;SDS011;27073;51.128;4.220;2023-01-20T10:36:36;17.25;;;10.32;;
41323;SDS011;27073;51.128;4.220;2023-01-20T10:39:16;25.15;;;11.00;;
41323;SDS011;27073;51.128;4.220;2023-01-20T10:42:07;23.15;;;9.05;;
41323;SDS011;27073;51.128;4.220;2023-01-20T10:44:35;19.77;;;8.20;;
41323;SDS011;27073;51.128;4.220;2023-01-20T10:47:09;16.77;;;8.32;;
41323;SDS011;27073;51.128;4.220;2023-01-20T10:49:53;23.20;;;7.90;;
41323;SDS011;27073;51.128;4.220;2023-01-20T10:57:59;16.77;;;7.10;;
41323;SDS011;27073;51.128;4.220;2023-01-20T11:00:36;15.40;;;8.00;;
41323;SDS011;27073;51.128;4.220;2023-01-20T11:03:05;14.73;;;7.90;;
41323;SDS011;27073;51.128;4.220;2023-01-20T11:05:36;14.30;;;7.45;;
41323;SDS011;27073;51.128;4.220;2023-01-20T11:08:06;19.73;;;7.72;;
41323;SDS011;27073;51.128;4.220;2023-01-20T11:10:45;15.65;;;7.53;;
41323;SDS011;27073;51.128;4.220;2023-01-20T11:13:13;17.80;;;6.97;;
41323;SDS011;27073;51.128;4.220;2023-01-20T11:15:40;15.18;;;6.90;;
41323;SDS011;27073;51.128;4.220;2023-01-20T11:23:33;13.57;;;7.25;;
41323;SDS011;27073;51.128;4.220;2023-01-20T11:28:37;14.40;;;6.07;;
41323;SDS011;27073;51.128;4.220;2023-01-20T11:31:18;16.02;;;6.35;;
41323;SDS011;27073;51.128;4.220;2023-01-20T11:34:00;12.18;;;6.18;;
41323;SDS011;27073;51.128;4.220;2023-01-20T11:36:44;15.05;;;6.57;;
41323;SDS011;27073;51.128;4.220;2023-01-20T11:39:23;16.10;;;6.95;;
41323;SDS011;27073;51.128;4.220;2023-01-20T11:47:14;9.70;;;4.03;;
41323;SDS011;27073;51.128;4.220;2023-01-20T11:52:39;8.68;;;4.13;;
41323;SDS011;27073;51.128;4.220;2023-01-20T11:58:11;10.63;;;5.93;;
41323;SDS011;27073;51.128;4.220;2023-01-20T12:00:29;16.90;;;5.57;;
41323;SDS011;27073;51.128;4.220;2023-01-20T12:08:16;11.07;;;4.47;;
41323;SDS011;27073;51.128;4.220;2023-01-20T12:10:50;8.60;;;4.40;;
41323;SDS011;27073;51.128;4.220;2023-01-20T12:13:21;9.55;;;4.50;;
41323;SDS011;27073;51.128;4.220;2023-01-20T12:15:55;9.32;;;4.70;;
41323;SDS011;27073;51.128;4.220;2023-01-20T12:18:36;11.05;;;4.35;;
41323;SDS011;27073;51.128;4.220;2023-01-20T12:21:10;11.73;;;5.07;;
41323;SDS011;27073;51.128;4.220;2023-01-20T12:23:47;8.50;;;4.07;;
41323;SDS011;27073;51.128;4.220;2023-01-20T12:26:45;10.13;;;4.40;;
41323;SDS011;27073;51.128;4.220;2023-01-20T12:31:40;10.85;;;4.78;;
41323;SDS011;27073;51.128;4.220;2023-01-20T12:34:11;9.45;;;4.70;;
41323;SDS011;27073;51.128;4.220;2023-01-20T12:39:10;8.38;;;4.35;;
41323;SDS011;27073;51.128;4.220;2023-01-20T12:50:36;6.30;;;2.90;;
41323;SDS011;27073;51.128;4.220;2023-01-20T12:53:29;6.03;;;2.80;;
41323;SDS011;27073;51.128;4.220;2023-01-20T13:15:27;11.80;;;7.35;;
41323;SDS011;27073;51.128;4.220;2023-01-20T13:21:11;11.75;;;4.53;;
41323;SDS011;27073;51.128;4.220;2023-01-20T13:23:43;10.90;;;2.95;;
41323;SDS011;27073;51.128;4.220;2023-01-20T13:26:10;8.73;;;1.98;;
41323;SDS011;27073;51.128;4.220;2023-01-20T13:28:36;9.60;;;2.15;;
41323;SDS011;27073;51.128;4.220;2023-01-20T13:31:28;8.98;;;2.45;;
41323;SDS011;27073;51.128;4.220;2023-01-20T13:34:22;15.40;;;2.97;;
41323;SDS011;27073;51.128;4.220;2023-01-20T13:40:51;12.73;;;1.98;;
41323;SDS011;27073;51.128;4.220;2023-01-20T13:43:00;9.18;;;1.90;;
41323;SDS011;27073;51.128;4.220;2023-01-20T13:45:27;10.60;;;2.13;;
41323;SDS011;27073;51.128;4.220;2023-01-20T13:50:44;10.10;;;1.58;;
41323;SDS011;27073;51.128;4.220;2023-01-20T13:53:25;9.25;;;2.22;;
41323;SDS011;27073;51.128;4.220;2023-01-20T13:58:48;9.73;;;2.40;;
41323;SDS011;27073;51.128;4.220;2023-01-20T14:01:14;13.13;;;2.33;;
41323;SDS011;27073;51.128;4.220;2023-01-20T14:03:40;15.68;;;3.15;;
41323;SDS011;27073;51.128;4.220;2023-01-20T14:08:42;10.07;;;1.92;;
41323;SDS011;27073;51.128;4.220;2023-01-20T14:11:17;10.80;;;2.50;;
41323;SDS011;27073;51.128;4.220;2023-01-20T14:13:51;11.02;;;2.75;;
41323;SDS011;27073;51.128;4.220;2023-01-20T14:16:18;12.32;;;2.95;;
41323;SDS011;27073;51.128;4.220;2023-01-20T14:18:56;8.63;;;2.10;;
41323;SDS011;27073;51.128;4.220;2023-01-20T14:21:25;18.58;;;3.15;;
41323;SDS011;27073;51.128;4.220;2023-01-20T14:23:53;10.52;;;2.78;;
41323;SDS011;27073;51.128;4.220;2023-01-20T14:28:52;11.23;;;2.70;;
41323;SDS011;27073;51.128;4.220;2023-01-20T14:31:20;13.40;;;2.67;;
41323;SDS011;27073;51.128;4.220;2023-01-20T14:36:55;13.70;;;3.65;;
41323;SDS011;27073;51.128;4.220;2023-01-20T14:39:24;11.63;;;3.20;;
41323;SDS011;27073;51.128;4.220;2023-01-20T14:41:52;10.63;;;2.17;;
41323;SDS011;27073;51.128;4.220;2023-01-20T14:44:22;5.93;;;1.50;;
41323;SDS011;27073;51.128;4.220;2023-01-20T14:46:56;10.48;;;2.42;;
41323;SDS011;27073;51.128;4.220;2023-01-20T14:49:30;6.38;;;1.83;;
41323;SDS011;27073;51.128;4.220;2023-01-20T14:51:57;11.50;;;2.33;;
41323;SDS011;27073;51.128;4.220;2023-01-20T14:54:28;13.27;;;2.70;;
41323;SDS011;27073;51.128;4.220;2023-01-20T14:56:58;10.35;;;2.63;;
41323;SDS011;27073;51.128;4.220;2023-01-20T14:59:44;10.32;;;2.20;;
41323;SDS011;27073;51.128;4.220;2023-01-20T15:02:15;16.65;;;3.10;;
41323;SDS011;27073;51.128;4.220;2023-01-20T15:04:51;8.32;;;1.88;;
41323;SDS011;27073;51.128;4.220;2023-01-20T15:07:18;8.35;;;2.22;;
41323;SDS011;27073;51.128;4.220;2023-01-20T15:10:00;7.10;;;2.70;;
41323;SDS011;27073;51.128;4.220;2023-01-20T15:12:31;9.65;;;2.42;;
41323;SDS011;27073;51.128;4.220;2023-01-20T15:17:40;13.20;;;3.17;;
41323;SDS011;27073;51.128;4.220;2023-01-20T15:20:27;9.95;;;2.67;;
41323;SDS011;27073;51.128;4.220;2023-01-20T15:22:56;15.35;;;3.10;;
41323;SDS011;27073;51.128;4.220;2023-01-20T15:25:23;14.98;;;2.80;;
41323;SDS011;27073;51.128;4.220;2023-01-20T15:27:52;8.73;;;2.97;;
41323;SDS011;27073;51.128;4.220;2023-01-20T15:30:19;15.05;;;2.85;;
41323;SDS011;27073;51.128;4.220;2023-01-20T15:32:51;13.27;;;2.60;;
41323;SDS011;27073;51.128;4.220;2023-01-20T15:35:19;11.07;;;3.05;;
41323;SDS011;27073;51.128;4.220;2023-01-20T15:37:50;11.50;;;2.40;;
41323;SDS011;27073;51.128;4.220;2023-01-20T15:40:21;15.15;;;2.67;;
41323;SDS011;27073;51.128;4.220;2023-01-20T15:42:48;11.73;;;3.33;;
41323;SDS011;27073;51.128;4.220;2023-01-20T15:45:16;12.10;;;2.67;;
41323;SDS011;27073;51.128;4.220;2023-01-20T15:47:43;8.93;;;2.13;;
41323;SDS011;27073;51.128;4.220;2023-01-20T15:50:11;11.90;;;2.65;;
41323;SDS011;27073;51.128;4.220;2023-01-20T15:52:44;13.73;;;3.03;;
41323;SDS011;27073;51.128;4.220;2023-01-20T15:55:11;9.52;;;3.72;;
41323;SDS011;27073;51.128;4.220;2023-01-20T16:00:17;15.93;;;3.13;;
41323;SDS011;27073;51.128;4.220;2023-01-20T16:02:46;14.07;;;2.92;;
41323;SDS011;27073;51.128;4.220;2023-01-20T16:05:12;12.73;;;4.05;;
41323;SDS011;27073;51.128;4.220;2023-01-20T16:07:38;11.70;;;3.03;;
41323;SDS011;27073;51.128;4.220;2023-01-20T16:10:05;12.13;;;2.80;;
41323;SDS011;27073;51.128;4.220;2023-01-20T16:12:31;8.35;;;3.97;;
41323;SDS011;27073;51.128;4.220;2023-01-20T16:14:57;8.73;;;2.05;;
41323;SDS011;27073;51.128;4.220;2023-01-20T16:17:23;7.72;;;2.53;;
41323;SDS011;27073;51.128;4.220;2023-01-20T16:19:52;10.00;;;2.40;;
41323;SDS011;27073;51.128;4.220;2023-01-20T16:22:18;9.82;;;2.75;;
41323;SDS011;27073;51.128;4.220;2023-01-20T16:24:44;10.85;;;2.95;;
41323;SDS011;27073;51.128;4.220;2023-01-20T16:27:15;7.35;;;2.33;;
41323;SDS011;27073;51.128;4.220;2023-01-20T16:29:42;9.30;;;2.55;;
41323;SDS011;27073;51.128;4.220;2023-01-20T16:32:09;10.73;;;2.95;;
41323;SDS011;27073;51.128;4.220;2023-01-20T16:34:35;10.13;;;2.28;;
41323;SDS011;27073;51.128;4.220;2023-01-20T16:37:01;8.73;;;2.42;;
41323;SDS011;27073;51.128;4.220;2023-01-20T16:39:27;9.20;;;2.28;;
41323;SDS011;27073;51.128;4.220;2023-01-20T16:41:53;9.23;;;2.60;;
41323;SDS011;27073;51.128;4.220;2023-01-20T16:44:18;7.38;;;3.25;;
41323;SDS011;27073;51.128;4.220;2023-01-20T16:46:45;7.13;;;2.80;;
41323;SDS011;27073;51.128;4.220;2023-01-20T16:49:11;8.75;;;3.15;;
41323;SDS011;27073;51.128;4.220;2023-01-20T16:51:37;8.15;;;3.00;;
41323;SDS011;27073;51.128;4.220;2023-01-20T16:54:03;12.65;;;4.22;;
41323;SDS011;27073;51.128;4.220;2023-01-20T16:56:29;13.05;;;4.22;;
41323;SDS011;27073;51.128;4.220;2023-01-20T16:58:57;9.57;;;4.00;;
41323;SDS011;27073;51.128;4.220;2023-01-20T17:01:27;10.05;;;3.35;;
41323;SDS011;27073;51.128;4.220;2023-01-20T17:03:56;8.93;;;4.07;;
41323;SDS011;27073;51.128;4.220;2023-01-20T17:06:24;8.25;;;2.70;;
41323;SDS011;27073;51.128;4.220;2023-01-20T17:08:52;11.63;;;3.83;;
41323;SDS011;27073;51.128;4.220;2023-01-20T17:11:20;7.45;;;2.67;;
41323;SDS011;27073;51.128;4.220;2023-01-20T17:14:01;12.43;;;2.80;;